Flight Track Log - Related Links

Times and Time Zones

All times are in EDT time to prevent confusion due to time zone crossing. See the JIA2332 flight status page for this flight to view local times or setup timezone preferences in your user account.


Time Position Orientation Groundspeed Altitude Reporting Facility
EDT Latitude Longitude Course Direction KTS MPH feet Rate Location/Type
Mon 04:32:15 PM 35.2003 -80.9758 350° North  Level FlightAware Approximate
Mon 04:33:39 PM 35.2800 -80.9933 278° West 190 219 4,800  Level Atlanta Center
Mon 04:34:40 PM 35.2881 -81.0669 249° West 252 290 6,900 1,934 Climbing Atlanta Center
Mon 04:35:40 PM 35.2608 -81.1517 236° Southwest 290 334 8,700 2,121 Climbing Atlanta Center
Mon 04:36:36 PM 35.2208 -81.2244 234° Southwest 286 329 11,000 2,350 Climbing Atlanta Center
Mon 04:37:40 PM 35.1725 -81.3047 234° Southwest 298 343 13,400 1,452 Climbing Atlanta Center
Mon 04:38:40 PM 35.1222 -81.3878 234° Southwest 312 359 14,000 300 Climbing Atlanta Center
Mon 04:39:40 PM 35.0739 -81.4681 233° Southwest 318 366 14,000 600 Level Atlanta Center
Mon 04:40:40 PM 35.0153 -81.5636 243° Southwest 323 372 15,200 1,500 Climbing Atlanta Center
Mon 04:41:40 PM 34.9733 -81.6661 250° West 328 377 17,000 1,800 Climbing Atlanta Center
Mon 04:42:40 PM 34.9419 -81.7736 239° Southwest 335 386 18,800 1,800 Climbing Atlanta Center
Mon 04:43:40 PM 34.8917 -81.8761 237° Southwest 342 394 20,600 1,700 Climbing Atlanta Center
Mon 04:44:40 PM 34.8392 -81.9736 233° Southwest 347 399 22,200 1,289 Climbing Atlanta Center
Mon 04:45:41 PM 34.7803 -82.0686 237° Southwest 352 405 23,200 850 Climbing Atlanta Center
Mon 04:46:40 PM 34.7233 -82.1761 234° Southwest 371 427 23,900 706 Climbing Atlanta Center
Mon 04:47:40 PM 34.6622 -82.2786 236° Southwest 378 435 24,600 750 Climbing Atlanta Center
Mon 04:48:40 PM 34.5992 -82.3908 235° Southwest 389 448 25,400 700 Climbing Atlanta Center
Mon 04:49:40 PM 34.5381 -82.4981 236° Southwest 394 453 26,000 650 Climbing Atlanta Center
Mon 04:50:40 PM 34.4767 -82.6075 234° Southwest 399 459 26,700 700 Climbing Atlanta Center
Mon 04:51:40 PM 34.4111 -82.7169 236° Southwest 399 459 27,400 650 Climbing Atlanta Center
Mon 04:52:40 PM 34.3497 -82.8261 233° Southwest 400 460 28,000 550 Climbing Atlanta Center
Mon 04:53:40 PM 34.2922 -82.9200 235° Southwest 406 467 28,500 600 Climbing Atlanta Center
Mon 04:54:40 PM 34.2283 -83.0314 235° Southwest 406 467 29,200 600 Climbing Atlanta Center
Mon 04:55:40 PM 34.1644 -83.1400 236° Southwest 406 467 29,700 400 Climbing Atlanta Center
Mon 04:56:40 PM 34.1028 -83.2486 235° Southwest 406 467 30,000 150 Climbing Atlanta Center
Mon 04:57:40 PM 34.0367 -83.3619 234° Southwest 406 467 30,000  Level Atlanta Center
Mon 04:58:40 PM 33.9683 -83.4753 234° Southwest 411 473 30,000  Level Atlanta Center
Mon 04:59:40 PM 33.8958 -83.5958 234° Southwest 416 479 30,000  Level Atlanta Center
Mon 05:00:40 PM 33.8333 -83.7011 233° Southwest 406 467 30,000  Level Atlanta Center
Mon 05:01:40 PM 33.7711 -83.8014 233° Southwest 386 444 30,000  Level Atlanta Center
Mon 05:02:40 PM 33.7106 -83.8989 233° Southwest 376 433 30,000  Level Atlanta Center
Mon 05:03:40 PM 33.6481 -83.9989 234° Southwest 376 433 30,000  Level Atlanta Center
Mon 05:04:40 PM 33.5856 -84.1011 233° Southwest 381 438 30,000  Level Atlanta Center
Mon 05:05:40 PM 33.5208 -84.2058 232° Southwest 387 445 30,000  Level Atlanta Center
Mon 05:06:40 PM 33.4622 -84.2953 233° Southwest 387 445 30,000  Level Atlanta Center
Mon 05:07:40 PM 33.4014 -84.3922 233° Southwest 387 445 30,000  Level Atlanta Center
Mon 05:08:40 PM 33.3383 -84.4939 233° Southwest 387 445 30,000  Level Atlanta Center
Mon 05:09:40 PM 33.2753 -84.5953 233° Southwest 387 445 30,000  Level Atlanta Center
Mon 05:10:40 PM 33.2058 -84.7067 232° Southwest 387 445 30,000  Level Atlanta Center
Mon 05:11:40 PM 33.1386 -84.8103 233° Southwest 387 445 30,000  Level Atlanta Center
Mon 05:12:40 PM 33.0753 -84.9114 234° Southwest 387 445 30,000  Level Atlanta Center
Mon 05:13:40 PM 33.0139 -85.0125 231° Southwest 387 445 30,000  Level Atlanta Center
Mon 05:14:40 PM 32.9464 -85.1106 232° Southwest 380 437 30,000  Level Atlanta Center
Mon 05:15:40 PM 32.8850 -85.2039 234° Southwest 380 437 30,000  Level Atlanta Center
Mon 05:16:40 PM 32.8233 -85.3044 230° Southwest 378 435 30,000  Level Atlanta Center
Mon 05:17:40 PM 32.7578 -85.3975 233° Southwest 378 435 30,000  Level Atlanta Center
Mon 05:18:40 PM 32.6939 -85.4975 232° Southwest 378 435 30,000  Level Atlanta Center
Mon 05:19:40 PM 32.6322 -85.5928 232° Southwest 378 435 30,000  Level Atlanta Center
Mon 05:20:40 PM 32.5706 -85.6878 231° Southwest 378 435 30,000  Level Atlanta Center
Mon 05:21:40 PM 32.5022 -85.7875 231° Southwest 378 435 30,000  Level Atlanta Center
Mon 05:22:40 PM 32.4383 -85.8797 234° Southwest 383 441 30,000  Level Atlanta Center
Mon 05:23:40 PM 32.3783 -85.9769 231° Southwest 378 435 30,000  Level Atlanta Center
Mon 05:24:40 PM 32.3164 -86.0689 232° Southwest 367 422 30,000  Level Atlanta Center
Mon 05:25:40 PM 32.2544 -86.1633 239° Southwest 362 417 30,000  Level Atlanta Center
Mon 05:26:40 PM 32.2067 -86.2556 229° Southwest 362 417 30,000  Level Atlanta Center
Mon 05:27:40 PM 32.1319 -86.3567 235° Southwest 372 428 30,000  Level Atlanta Center
Mon 05:28:40 PM 32.0822 -86.4411 232° Southwest 367 422 30,000  Level Atlanta Center
Mon 05:29:40 PM 32.0200 -86.5350 228° Southwest 362 417 30,000  Level Atlanta Center
Mon 05:30:40 PM 31.9447 -86.6331 232° Southwest 368 423 30,000  Level Atlanta Center
Mon 05:31:40 PM 31.8822 -86.7267 232° Southwest 373 429 30,000  Level Atlanta Center
Mon 05:32:40 PM 31.8197 -86.8203 232° Southwest 373 429 30,000  Level Atlanta Center
Mon 05:35:24 PM 31.6594 -87.0631 232° Southwest 365 420 30,000  Level Houston Center
Mon 05:36:24 PM 31.5981 -87.1558 230° Southwest 365 420 30,000  Level Houston Center
Mon 05:37:24 PM 31.5322 -87.2492 232° Southwest 365 420 30,000  Level Houston Center
Mon 05:38:24 PM 31.4706 -87.3417 234° Southwest 365 420 30,000 -500 Level Houston Center
Mon 05:39:24 PM 31.4111 -87.4369 235° Southwest 365 420 29,000 -1,000 Descending Houston Center
Mon 05:40:24 PM 31.3536 -87.5339 234° Southwest 370 426 28,000 -600 Descending Houston Center
Mon 05:41:24 PM 31.2961 -87.6261 236° Southwest 370 426 27,800 -1,000 Descending Houston Center
Mon 05:42:24 PM 31.2364 -87.7283 234° Southwest 375 432 26,000 -1,750 Descending Houston Center
Mon 05:43:24 PM 31.1747 -87.8278 234° Southwest 380 437 24,300 -1,800 Descending Houston Center
Mon 05:44:24 PM 31.1108 -87.9319 234° Southwest 380 437 22,400 -2,000 Descending Houston Center
Mon 05:45:24 PM 31.0489 -88.0311 241° Southwest 380 437 20,300 -2,200 Descending Houston Center
Mon 05:46:24 PM 31.0033 -88.1272 249° West 368 423 18,000 -2,350 Descending Houston Center
Mon 05:47:24 PM 30.9686 -88.2303 249° West 350 403 15,600 -2,350 Descending Houston Center
Mon 05:48:24 PM 30.9356 -88.3331 250° West 345 397 13,300 -2,250 Descending Houston Center
Mon 05:49:24 PM 30.9047 -88.4308 250° West 335 386 11,100 -1,200 Descending Houston Center
Mon 05:50:24 PM 30.8756 -88.5236 243° Southwest 329 379 10,900 -50 Descending Houston Center
Mon 05:51:24 PM 30.8397 -88.6044 223° Southwest 316 364 11,000 50 Climbing Houston Center
Mon 05:52:24 PM 30.7786 -88.6717 222° Southwest 297 342 11,000 -50 Level Houston Center
Mon 05:53:24 PM 30.7156 -88.7386 214° Southwest 297 342 10,900 -250 Descending Houston Center
Mon 05:54:24 PM 30.6458 -88.7939 204° Southwest 309 356 10,500 -1,300 Descending Houston Center
Mon 05:55:24 PM 30.5653 -88.8347 206° Southwest 315 362 8,300 -2,350 Descending Houston Center
Mon 05:56:24 PM 30.4889 -88.8778 205° Southwest 315 362 5,800 -2,450 Descending Houston Center
Mon 05:57:24 PM 30.4186 -88.9158 192° South 285 328 3,400 -1,900 Descending Houston Center
Mon 05:58:24 PM 30.3522 -88.9319 192° South 253 291 2,000 -1,400 Descending Houston Center

Login

Don't have an account? Register now (free) for customized features, flight alerts, and more!